Time;durP1;ratioP1;P1;durP2;ratioP2;P2;SDS_P1;SDS_P2;PMS_P1;PMS_P2;Temp;Humidity;BMP_temperature;BMP_pressure;BME280_temperature;BME280_humidity;BME280_pressure;Samples;Min_cycle;Max_cycle;Signal;HPM_P1;HPM_P2
2023/12/28 00:02:24;;;;;;;4.75;2.60;;;8.50;99.90;;;;;;5037610;28;20048;-70
2023/12/28 00:04:50;;;;;;;7.43;3.08;;;8.50;99.90;;;;;;5037878;28;20087;-69
2023/12/28 00:07:16;;;;;;;6.15;3.20;;;8.50;99.90;;;;;;5031112;28;20505;-67
2023/12/28 00:09:41;;;;;;;5.38;3.22;;;8.40;99.90;;;;;;5032393;28;20103;-69
2023/12/28 00:12:07;;;;;;;6.22;3.28;;;8.60;99.90;;;;;;5035154;28;20037;-70
2023/12/28 00:14:33;;;;;;;6.13;2.90;;;8.70;99.90;;;;;;5041899;28;20063;-69
2023/12/28 00:16:58;;;;;;;5.93;3.10;;;8.70;99.90;;;;;;5033181;28;20037;-69
2023/12/28 00:19:24;;;;;;;7.70;3.63;;;8.80;99.90;;;;;;5037246;28;20036;-69
2023/12/28 00:21:50;;;;;;;3.75;3.00;;;8.90;99.90;;;;;;5029132;28;20037;-69
2023/12/28 00:24:16;;;;;;;4.25;3.17;;;9.00;99.90;;;;;;5014771;28;20041;-67
2023/12/28 00:26:42;;;;;;;10.25;3.42;;;9.00;99.90;;;;;;5033943;28;20098;-70
2023/12/28 00:29:07;;;;;;;6.50;3.83;;;9.00;99.90;;;;;;5037694;28;20037;-70
2023/12/28 00:31:33;;;;;;;5.07;3.00;;;9.20;99.90;;;;;;5033899;28;20049;-68
2023/12/28 00:33:58;;;;;;;7.30;3.33;;;9.20;99.90;;;;;;5040852;28;20041;-67
2023/12/28 00:36:24;;;;;;;4.80;3.40;;;9.10;99.90;;;;;;5039503;28;20025;-68
2023/12/28 00:38:50;;;;;;;5.57;3.38;;;9.10;99.90;;;;;;5033424;28;20084;-69
2023/12/28 00:41:15;;;;;;;5.40;3.33;;;9.00;99.90;;;;;;5037106;28;20091;-68
2023/12/28 00:43:41;;;;;;;6.47;3.00;;;9.20;99.90;;;;;;5035414;28;20044;-68
2023/12/28 00:46:06;;;;;;;6.10;3.40;;;9.20;99.90;;;;;;5013537;28;20088;-68
2023/12/28 00:48:32;;;;;;;7.82;3.80;;;9.20;99.90;;;;;;5037363;28;20049;-67
2023/12/28 00:50:58;;;;;;;7.55;3.35;;;9.30;99.90;;;;;;5016941;28;20480;-67
2023/12/28 00:53:26;;;;;;;7.90;3.63;;;9.30;99.90;;;;;;5033867;28;20037;-65
2023/12/28 00:55:51;;;;;;;9.80;3.67;;;9.20;99.90;;;;;;5033571;28;20072;-70
2023/12/28 00:58:17;;;;;;;6.43;3.95;;;9.20;99.90;;;;;;5032990;28;20587;-70
2023/12/28 01:00:42;;;;;;;6.13;3.25;;;9.30;99.90;;;;;;5032076;28;20037;-67
2023/12/28 01:03:08;;;;;;;8.02;4.03;;;9.20;99.90;;;;;;5035887;28;20049;-67
2023/12/28 01:05:34;;;;;;;8.63;3.53;;;9.20;99.90;;;;;;5030463;28;20136;-69
2023/12/28 01:07:59;;;;;;;7.40;4.22;;;9.10;99.90;;;;;;5014427;28;20084;-69
2023/12/28 01:10:25;;;;;;;8.73;3.35;;;9.10;99.90;;;;;;5037417;28;20128;-69
2023/12/28 01:12:51;;;;;;;6.20;3.22;;;9.10;99.90;;;;;;5039590;28;20502;-69
2023/12/28 01:15:17;;;;;;;7.47;3.40;;;9.00;99.90;;;;;;5032193;28;20038;-69
2023/12/28 01:17:43;;;;;;;8.20;3.85;;;9.20;99.90;;;;;;5019349;28;20040;-68
2023/12/28 01:20:09;;;;;;;10.93;3.35;;;9.20;99.90;;;;;;5037511;28;20041;-68
2023/12/28 01:22:35;;;;;;;6.82;3.78;;;9.00;99.90;;;;;;5034642;28;20052;-69
2023/12/28 01:25:00;;;;;;;7.65;3.30;;;9.00;99.90;;;;;;5028785;28;20033;-67
2023/12/28 01:27:26;;;;;;;6.07;3.17;;;9.00;99.90;;;;;;5026017;28;20110;-69
2023/12/28 01:29:52;;;;;;;6.95;3.50;;;9.00;99.90;;;;;;5043899;28;20099;-68
2023/12/28 01:32:17;;;;;;;6.85;3.33;;;9.10;99.90;;;;;;5033353;28;20428;-67
2023/12/28 01:34:43;;;;;;;6.68;3.67;;;9.00;99.90;;;;;;5029634;28;20428;-68
2023/12/28 01:37:09;;;;;;;5.28;3.33;;;8.90;99.90;;;;;;5029704;28;20076;-69
2023/12/28 01:39:34;;;;;;;9.45;4.15;;;8.90;99.90;;;;;;5043626;28;20140;-67
2023/12/28 01:42:00;;;;;;;8.57;3.80;;;8.90;99.90;;;;;;5038294;28;20044;-69
2023/12/28 01:44:25;;;;;;;8.77;3.13;;;8.90;99.90;;;;;;5036081;28;20040;-68
2023/12/28 01:46:52;;;;;;;7.30;3.45;;;8.90;99.90;;;;;;5034981;28;20170;-70
2023/12/28 01:49:17;;;;;;;10.70;3.80;;;8.90;99.90;;;;;;5033413;28;20049;-70
2023/12/28 01:51:45;;;;;;;7.80;3.63;;;8.80;99.90;;;;;;5034278;28;20037;-70
2023/12/28 01:54:11;;;;;;;6.53;3.30;;;8.80;99.90;;;;;;5029764;28;20531;-68
2023/12/28 01:56:37;;;;;;;6.90;3.58;;;8.80;99.90;;;;;;5041006;28;20041;-67
2023/12/28 01:59:03;;;;;;;7.38;3.60;;;8.80;99.90;;;;;;5023183;28;20112;-68
2023/12/28 02:01:29;;;;;;;6.80;3.90;;;8.80;99.90;;;;;;5032550;28;20112;-68
2023/12/28 02:03:55;;;;;;;6.45;3.70;;;8.80;99.90;;;;;;5029058;28;20051;-68
2023/12/28 02:06:23;;;;;;;10.20;3.85;;;8.80;99.90;;;;;;5032572;28;20049;-67
2023/12/28 02:08:49;;;;;;;9.45;3.72;;;8.80;99.90;;;;;;5029174;28;20040;-69
2023/12/28 02:11:14;;;;;;;11.70;3.47;;;8.70;99.90;;;;;;5026392;28;20128;-68
2023/12/28 02:13:40;;;;;;;9.10;3.88;;;8.70;99.90;;;;;;5032909;28;20466;-68
2023/12/28 02:16:31;;;;;;;6.65;3.75;;;8.70;99.90;;;;;;5025218;28;20045;-70
2023/12/28 02:19:03;;;;;;;6.50;3.53;;;8.70;99.90;;;;;;5027354;28;20140;-69
2023/12/28 02:21:31;;;;;;;7.40;3.75;;;8.70;99.90;;;;;;5026075;28;20045;-69
2023/12/28 02:23:57;;;;;;;6.95;3.60;;;8.70;99.90;;;;;;5009989;28;20137;-67
2023/12/28 02:26:22;;;;;;;8.73;5.28;;;8.80;99.90;;;;;;5031826;28;20717;-67
2023/12/28 02:28:48;;;;;;;8.07;3.30;;;8.70;99.90;;;;;;5031148;28;20121;-67
2023/12/28 02:31:24;;;;;;;11.05;4.00;;;8.70;99.90;;;;;;5037883;28;20124;-69
2023/12/28 02:34:12;;;;;;;4.85;3.15;;;8.60;99.90;;;;;;5036162;28;20037;-69
2023/12/28 02:36:41;;;;;;;8.48;3.45;;;8.60;99.90;;;;;;5046621;28;20040;-70
2023/12/28 02:39:08;;;;;;;6.85;3.63;;;8.60;99.90;;;;;;5028489;28;20045;-68
2023/12/28 02:41:34;;;;;;;7.45;3.67;;;8.80;99.90;;;;;;5033009;28;20045;-70
2023/12/28 02:43:59;;;;;;;5.43;3.83;;;8.60;99.90;;;;;;5033107;28;20076;-68
2023/12/28 02:46:25;;;;;;;6.10;3.50;;;8.70;99.90;;;;;;5015823;28;20470;-70
2023/12/28 02:48:52;;;;;;;8.82;3.70;;;8.70;99.90;;;;;;5032787;28;20133;-69
2023/12/28 02:51:18;;;;;;;9.88;3.80;;;8.70;99.90;;;;;;5029472;28;20049;-67
2023/12/28 02:53:43;;;;;;;8.82;3.30;;;8.70;99.90;;;;;;5031942;28;20041;-67
2023/12/28 02:56:09;;;;;;;8.80;3.53;;;8.70;99.90;;;;;;5032925;28;20046;-69
2023/12/28 02:58:35;;;;;;;10.82;3.47;;;8.80;99.90;;;;;;5038787;28;20515;-69
2023/12/28 03:01:00;;;;;;;7.75;3.35;;;8.90;99.90;;;;;;5032167;28;20405;-68
2023/12/28 03:03:26;;;;;;;10.63;3.22;;;8.90;99.90;;;;;;5042977;28;20049;-67
2023/12/28 03:05:51;;;;;;;8.10;3.53;;;8.90;99.90;;;;;;5036366;28;20106;-70
2023/12/28 03:08:17;;;;;;;8.18;3.33;;;8.90;99.90;;;;;;5033363;28;20124;-68
2023/12/28 03:10:43;;;;;;;10.05;3.28;;;9.00;99.90;;;;;;5044174;28;20504;-67
2023/12/28 03:13:08;;;;;;;5.22;2.97;;;9.00;99.90;;;;;;5034403;28;20123;-68
2023/12/28 03:15:34;;;;;;;6.43;3.00;;;9.10;99.90;;;;;;5044369;28;20028;-68
2023/12/28 03:17:59;;;;;;;5.40;3.40;;;9.10;99.90;;;;;;5036336;28;20127;-68
2023/12/28 03:20:25;;;;;;;7.38;3.22;;;9.20;99.90;;;;;;5033231;28;20073;-69
2023/12/28 03:22:51;;;;;;;7.55;2.92;;;9.20;99.90;;;;;;5027406;28;20040;-68
2023/12/28 03:25:16;;;;;;;7.68;3.10;;;9.20;99.90;;;;;;5038773;28;20036;-67
2023/12/28 03:27:42;;;;;;;10.02;3.60;;;9.20;99.90;;;;;;5040385;28;20036;-66
2023/12/28 03:30:08;;;;;;;6.75;2.95;;;9.20;99.90;;;;;;5028834;28;20232;-68
2023/12/28 03:32:33;;;;;;;6.43;2.80;;;9.20;99.90;;;;;;5033765;28;20041;-66
2023/12/28 03:34:59;;;;;;;8.20;3.20;;;9.30;99.90;;;;;;5044761;28;20125;-69
2023/12/28 03:37:25;;;;;;;6.05;3.00;;;9.30;99.90;;;;;;5031116;28;20052;-68
2023/12/28 03:39:51;;;;;;;8.18;3.45;;;9.30;99.90;;;;;;5035023;28;20457;-68
2023/12/28 03:42:16;;;;;;;10.32;3.25;;;9.30;99.90;;;;;;5035338;28;20401;-66
2023/12/28 03:44:42;;;;;;;6.32;2.75;;;9.30;99.90;;;;;;5038651;28;21297;-69
2023/12/28 03:47:07;;;;;;;7.65;3.03;;;9.40;99.90;;;;;;5030375;28;20044;-69
2023/12/28 03:49:33;;;;;;;5.45;2.80;;;9.50;99.90;;;;;;5032698;28;20107;-67
2023/12/28 03:51:59;;;;;;;8.70;2.78;;;9.60;99.90;;;;;;5038483;28;20084;-71
2023/12/28 03:54:24;;;;;;;7.88;3.20;;;9.50;99.90;;;;;;5034141;28;20033;-69
2023/12/28 03:56:50;;;;;;;8.70;2.92;;;9.60;99.90;;;;;;5030721;28;20091;-70
2023/12/28 03:59:15;;;;;;;7.30;2.95;;;9.70;99.90;;;;;;5039978;28;20583;-68
2023/12/28 04:01:41;;;;;;;7.38;2.63;;;9.60;99.90;;;;;;5030239;28;20488;-69
2023/12/28 04:04:07;;;;;;;14.57;2.90;;;9.70;99.90;;;;;;5033179;28;20043;-68
2023/12/28 04:06:32;;;;;;;7.82;2.85;;;9.70;99.90;;;;;;5042146;28;20501;-68
2023/12/28 04:08:58;;;;;;;13.65;2.80;;;9.60;99.90;;;;;;5038716;28;20040;-69
2023/12/28 04:11:24;;;;;;;10.25;2.80;;;9.50;99.90;;;;;;5032133;28;20044;-69
2023/12/28 04:13:50;;;;;;;11.90;2.50;;;9.50;99.90;;;;;;5033436;28;20501;-66
2023/12/28 04:16:16;;;;;;;9.95;2.30;;;9.50;99.90;;;;;;5034451;28;20038;-68
2023/12/28 04:18:42;;;;;;;9.18;2.45;;;9.60;99.90;;;;;;5030194;28;20037;-68
2023/12/28 04:21:09;;;;;;;8.38;2.78;;;9.50;99.90;;;;;;5035323;28;20035;-70
2023/12/28 04:23:36;;;;;;;9.45;2.20;;;9.70;99.90;;;;;;5019639;28;20044;-67
2023/12/28 04:26:02;;;;;;;10.10;2.60;;;9.70;99.90;;;;;;5028507;28;20471;-67
2023/12/28 04:28:27;;;;;;;8.27;2.50;;;9.70;99.90;;;;;;5033297;28;20056;-70
2023/12/28 04:30:53;;;;;;;7.78;2.70;;;9.80;99.90;;;;;;5030366;28;20056;-68
2023/12/28 04:33:19;;;;;;;10.57;2.65;;;9.90;99.90;;;;;;5037866;28;20120;-68
2023/12/28 04:35:45;;;;;;;9.85;2.53;;;9.90;99.90;;;;;;5032699;28;20032;-67
2023/12/28 04:38:11;;;;;;;5.25;2.00;;;9.90;99.90;;;;;;5016315;28;20025;-69
2023/12/28 04:40:36;;;;;;;4.72;2.40;;;9.80;99.90;;;;;;5031715;28;20433;-68
2023/12/28 04:43:02;;;;;;;7.18;2.35;;;9.80;99.90;;;;;;5035250;28;20047;-68
2023/12/28 04:45:28;;;;;;;8.52;2.67;;;9.90;99.90;;;;;;5032197;28;20094;-70
2023/12/28 04:47:54;;;;;;;7.75;2.67;;;9.90;99.90;;;;;;5018036;28;20374;-67
2023/12/28 04:50:20;;;;;;;5.53;2.00;;;9.90;99.90;;;;;;5043966;28;20041;-68
2023/12/28 04:52:45;;;;;;;4.88;2.10;;;9.90;99.90;;;;;;5030629;28;20132;-68
2023/12/28 04:55:11;;;;;;;7.22;3.25;;;9.90;99.90;;;;;;5032583;28;20068;-69
2023/12/28 04:57:37;;;;;;;5.72;2.22;;;9.90;99.90;;;;;;5028149;28;20025;-65
2023/12/28 05:00:03;;;;;;;6.53;2.22;;;9.80;99.90;;;;;;5036612;28;20040;-68
2023/12/28 05:02:29;;;;;;;8.00;2.22;;;9.90;99.90;;;;;;5018169;28;20084;-67
2023/12/28 05:04:54;;;;;;;8.05;2.00;;;9.90;99.90;;;;;;5033787;28;20037;-68
2023/12/28 05:07:20;;;;;;;6.75;2.30;;;10.00;99.90;;;;;;5035599;28;20469;-68
2023/12/28 05:09:45;;;;;;;10.13;3.00;;;10.10;99.90;;;;;;5029995;28;20562;-70
2023/12/28 05:12:12;;;;;;;9.57;2.33;;;10.10;99.90;;;;;;5033807;28;20029;-69
2023/12/28 05:14:37;;;;;;;12.38;2.50;;;10.20;99.90;;;;;;5040231;28;20099;-70
2023/12/28 05:17:03;;;;;;;10.25;2.17;;;10.20;99.90;;;;;;5023350;28;20041;-70
2023/12/28 05:19:29;;;;;;;13.75;3.25;;;10.30;99.90;;;;;;5033611;28;20045;-68
2023/12/28 05:21:55;;;;;;;11.77;2.30;;;10.30;99.90;;;;;;5034560;28;20486;-68
2023/12/28 05:24:20;;;;;;;6.93;2.03;;;10.40;99.90;;;;;;5028926;28;20068;-69
2023/12/28 05:26:46;;;;;;;9.75;2.60;;;10.30;99.90;;;;;;5048202;28;20132;-68
2023/12/28 05:29:12;;;;;;;12.88;2.35;;;10.40;99.90;;;;;;5022441;28;20615;-67
2023/12/28 05:31:37;;;;;;;17.05;2.85;;;10.40;99.90;;;;;;5038014;28;20049;-68
2023/12/28 05:34:04;;;;;;;9.60;2.17;;;10.40;99.90;;;;;;5037426;28;20087;-68
2023/12/28 05:36:29;;;;;;;12.35;2.67;;;10.40;99.90;;;;;;5015967;28;20125;-68
2023/12/28 05:38:55;;;;;;;13.35;2.72;;;10.40;99.90;;;;;;5029732;28;20479;-68
2023/12/28 05:41:20;;;;;;;8.43;1.80;;;10.50;99.90;;;;;;5030353;28;20105;-66
2023/12/28 05:43:46;;;;;;;10.68;2.55;;;10.50;99.90;;;;;;5032749;28;20049;-68
2023/12/28 05:46:12;;;;;;;11.77;2.42;;;10.50;99.90;;;;;;5031015;28;20065;-66
2023/12/28 05:48:37;;;;;;;11.05;2.45;;;10.50;99.90;;;;;;5044362;28;20053;-68
2023/12/28 05:51:03;;;;;;;6.13;2.05;;;10.40;99.90;;;;;;5032370;28;20033;-68
2023/12/28 05:53:29;;;;;;;11.15;2.45;;;10.50;99.90;;;;;;5032912;28;20124;-69
2023/12/28 05:55:54;;;;;;;9.35;2.22;;;10.60;99.90;;;;;;5015970;28;20176;-68
2023/12/28 05:58:20;;;;;;;13.02;2.42;;;10.50;99.90;;;;;;5032307;28;20064;-69
2023/12/28 06:00:47;;;;;;;12.45;2.50;;;10.60;99.90;;;;;;5032509;28;20044;-68
2023/12/28 06:03:16;;;;;;;12.30;2.03;;;10.50;99.90;;;;;;5029542;28;20064;-69
2023/12/28 06:05:41;;;;;;;13.25;2.97;;;10.50;99.90;;;;;;5038976;28;20492;-68
2023/12/28 06:08:07;;;;;;;12.45;2.55;;;10.50;99.90;;;;;;5030197;28;20069;-71
2023/12/28 06:10:32;;;;;;;10.20;2.10;;;10.50;99.90;;;;;;5040358;28;21916;-68
2023/12/28 06:12:58;;;;;;;10.25;1.98;;;10.60;99.90;;;;;;5031989;28;20033;-68
2023/12/28 06:15:24;;;;;;;12.82;2.22;;;10.60;99.90;;;;;;5026753;28;20041;-69
2023/12/28 06:17:49;;;;;;;9.38;2.53;;;10.60;99.90;;;;;;5029493;28;20026;-69
2023/12/28 06:20:15;;;;;;;5.50;2.53;;;10.60;99.90;;;;;;5023216;28;20074;-69
2023/12/28 06:22:40;;;;;;;9.65;2.60;;;10.60;99.90;;;;;;5013042;28;20067;-70
2023/12/28 06:25:06;;;;;;;11.98;2.65;;;10.70;99.90;;;;;;5016534;28;20045;-68
2023/12/28 06:27:32;;;;;;;10.25;2.25;;;10.70;99.90;;;;;;5028895;28;20436;-69
2023/12/28 06:29:58;;;;;;;12.27;2.88;;;10.80;99.90;;;;;;5024478;28;20044;-68
2023/12/28 06:32:24;;;;;;;13.70;2.40;;;10.70;99.90;;;;;;5016042;28;20080;-70
2023/12/28 06:34:49;;;;;;;7.55;2.38;;;10.70;99.90;;;;;;5033995;28;20430;-69
2023/12/28 06:37:15;;;;;;;14.00;2.78;;;10.70;99.90;;;;;;5036956;28;20037;-68
2023/12/28 06:39:41;;;;;;;14.07;3.53;;;10.70;99.90;;;;;;5030281;28;20478;-70
2023/12/28 06:42:07;;;;;;;11.68;2.63;;;10.70;99.90;;;;;;5046972;28;20042;-67
2023/12/28 06:44:32;;;;;;;10.40;2.92;;;10.70;99.90;;;;;;5041091;28;20037;-71
2023/12/28 06:46:58;;;;;;;14.25;2.30;;;10.80;99.90;;;;;;5036039;28;20114;-69
2023/12/28 06:49:24;;;;;;;11.93;2.72;;;10.70;99.90;;;;;;5042656;28;20037;-70
2023/12/28 06:51:50;;;;;;;7.85;1.77;;;10.60;99.90;;;;;;5033684;28;20069;-69
2023/12/28 06:54:16;;;;;;;10.65;2.63;;;10.60;99.90;;;;;;5056958;28;20046;-70
2023/12/28 06:56:42;;;;;;;18.65;2.92;;;10.60;99.90;;;;;;5036504;28;20370;-66
2023/12/28 06:59:11;;;;;;;13.98;3.88;;;10.60;99.90;;;;;;5040635;28;20044;-70
2023/12/28 07:01:38;;;;;;;11.53;2.10;;;10.70;99.90;;;;;;5037743;28;20055;-68
2023/12/28 07:04:03;;;;;;;9.15;2.13;;;10.60;99.90;;;;;;5037956;28;20041;-71
2023/12/28 07:06:29;;;;;;;10.73;2.13;;;10.60;99.90;;;;;;5034294;28;20055;-69
2023/12/28 07:08:54;;;;;;;10.52;2.40;;;10.60;99.90;;;;;;5042982;28;20029;-67
2023/12/28 07:11:20;;;;;;;13.75;2.25;;;10.60;99.90;;;;;;5040045;28;20099;-69
2023/12/28 07:13:45;;;;;;;11.93;2.20;;;10.70;99.90;;;;;;5028923;28;20456;-67
2023/12/28 07:16:12;;;;;;;14.57;2.55;;;10.60;99.90;;;;;;5034518;28;20036;-69
2023/12/28 07:18:37;;;;;;;15.10;2.85;;;10.60;99.90;;;;;;5038232;28;20439;-68
2023/12/28 07:21:03;;;;;;;9.23;2.72;;;10.60;99.90;;;;;;5028984;28;20037;-67
2023/12/28 07:23:30;;;;;;;11.32;2.78;;;10.70;99.90;;;;;;5037054;28;20045;-68
2023/12/28 07:25:55;;;;;;;16.15;2.40;;;10.80;99.90;;;;;;5039794;28;20090;-68
2023/12/28 07:28:21;;;;;;;17.88;2.45;;;10.80;99.90;;;;;;5019552;28;20466;-70
2023/12/28 07:30:46;;;;;;;16.70;2.35;;;10.80;99.90;;;;;;5013768;28;20053;-68
2023/12/28 07:33:12;;;;;;;13.98;2.70;;;10.80;99.90;;;;;;5015658;28;20041;-70
2023/12/28 07:35:39;;;;;;;12.73;2.50;;;10.80;99.90;;;;;;5036688;28;20139;-69
2023/12/28 07:38:04;;;;;;;11.30;2.30;;;10.90;99.90;;;;;;5034384;28;20087;-69
2023/12/28 07:40:30;;;;;;;12.77;2.20;;;10.80;99.90;;;;;;5029823;28;20042;-69
2023/12/28 07:42:56;;;;;;;16.08;3.75;;;10.80;99.90;;;;;;5030988;28;20037;-66
2023/12/28 07:45:23;;;;;;;12.80;2.25;;;10.90;99.90;;;;;;5033879;28;20128;-67
2023/12/28 07:47:52;;;;;;;11.18;2.45;;;10.90;99.90;;;;;;5026895;28;20076;-70
2023/12/28 07:50:18;;;;;;;13.63;2.45;;;10.80;99.90;;;;;;5025922;28;20412;-67
2023/12/28 07:52:45;;;;;;;9.55;2.75;;;10.80;99.90;;;;;;5041767;28;20044;-70
2023/12/28 07:55:11;;;;;;;15.02;2.92;;;10.70;99.90;;;;;;5034516;28;20044;-69
2023/12/28 07:57:36;;;;;;;15.23;2.78;;;10.80;99.90;;;;;;5042565;28;20029;-69
2023/12/28 08:00:03;;;;;;;19.50;2.90;;;10.90;99.90;;;;;;5017514;28;20045;-67
2023/12/28 08:02:29;;;;;;;14.70;2.50;;;10.90;99.90;;;;;;5038533;28;20041;-69
2023/12/28 08:04:54;;;;;;;13.60;2.75;;;10.90;99.90;;;;;;5032955;28;20064;-68
2023/12/28 08:07:20;;;;;;;15.75;3.05;;;10.90;99.90;;;;;;5039976;28;20483;-68
2023/12/28 08:09:45;;;;;;;19.13;2.58;;;10.90;99.90;;;;;;5033350;28;20389;-67
2023/12/28 08:12:11;;;;;;;17.73;3.15;;;10.80;99.90;;;;;;5041605;28;20083;-67
2023/12/28 08:14:37;;;;;;;14.95;2.88;;;10.80;99.90;;;;;;5041936;28;20041;-67
2023/12/28 08:17:03;;;;;;;13.43;2.92;;;10.80;99.90;;;;;;5035277;28;20034;-69
2023/12/28 08:19:29;;;;;;;14.10;2.92;;;10.80;99.90;;;;;;5031854;28;20449;-68
2023/12/28 08:21:54;;;;;;;16.17;3.15;;;10.90;99.90;;;;;;5013644;28;20061;-68
2023/12/28 08:24:20;;;;;;;14.43;2.50;;;10.90;99.90;;;;;;5028421;28;20428;-68
2023/12/28 08:26:45;;;;;;;14.82;2.83;;;10.90;99.90;;;;;;5038155;28;20754;-69
2023/12/28 08:29:11;;;;;;;17.60;3.22;;;10.90;99.90;;;;;;5033453;28;20092;-68
2023/12/28 08:31:37;;;;;;;17.85;3.28;;;10.90;99.90;;;;;;5040470;28;20081;-68
2023/12/28 08:34:02;;;;;;;17.67;3.85;;;11.00;99.90;;;;;;5035062;28;20389;-67
2023/12/28 08:36:29;;;;;;;18.48;3.30;;;10.90;99.90;;;;;;5032317;28;20044;-68
2023/12/28 08:38:54;;;;;;;17.70;3.17;;;11.00;99.90;;;;;;5045186;28;20422;-67
2023/12/28 08:41:20;;;;;;;19.60;3.22;;;10.90;99.90;;;;;;5036899;28;20064;-70
2023/12/28 08:43:47;;;;;;;18.98;3.70;;;10.90;99.90;;;;;;5034065;28;20095;-69
2023/12/28 08:46:14;;;;;;;19.25;2.90;;;10.90;99.90;;;;;;5037380;28;20091;-68
2023/12/28 08:48:41;;;;;;;20.48;4.15;;;10.80;99.90;;;;;;5035987;28;20045;-67
2023/12/28 08:51:06;;;;;;;13.80;2.97;;;10.80;99.90;;;;;;5021574;28;20045;-68
2023/12/28 08:53:32;;;;;;;16.48;3.88;;;10.80;99.90;;;;;;5036961;28;20068;-69
2023/12/28 08:55:58;;;;;;;13.45;3.20;;;10.80;99.90;;;;;;5014709;28;20033;-69
2023/12/28 08:58:23;;;;;;;15.65;2.78;;;10.80;99.90;;;;;;5012663;28;20444;-67
2023/12/28 09:00:49;;;;;;;14.07;2.85;;;10.90;99.90;;;;;;5032271;28;20053;-66
2023/12/28 09:03:15;;;;;;;19.48;3.30;;;10.80;99.90;;;;;;5040698;28;20032;-69
2023/12/28 09:05:40;;;;;;;15.45;2.75;;;10.90;99.90;;;;;;5022606;28;20694;-68
2023/12/28 09:08:06;;;;;;;13.18;2.63;;;10.80;99.90;;;;;;5037672;28;20075;-69
2023/12/28 09:10:32;;;;;;;17.02;2.70;;;10.90;99.90;;;;;;5018377;28;20057;-68
2023/12/28 09:12:58;;;;;;;19.77;3.38;;;10.90;99.90;;;;;;5032014;28;20049;-67
2023/12/28 09:15:24;;;;;;;21.48;3.78;;;10.90;99.90;;;;;;5042063;28;20393;-69
2023/12/28 09:17:50;;;;;;;15.95;3.75;;;10.90;99.90;;;;;;5038751;28;20144;-67
2023/12/28 09:20:16;;;;;;;18.42;3.45;;;10.90;99.90;;;;;;5032580;28;20053;-69
2023/12/28 09:22:42;;;;;;;18.23;3.85;;;10.90;99.90;;;;;;5029479;28;20406;-69
2023/12/28 09:25:07;;;;;;;16.45;3.25;;;10.90;99.90;;;;;;5030560;28;20376;-68
2023/12/28 09:27:33;;;;;;;15.00;3.05;;;10.90;99.90;;;;;;5029965;28;20036;-69
2023/12/28 09:29:59;;;;;;;17.35;3.17;;;11.00;99.90;;;;;;5014975;28;20054;-69
2023/12/28 09:32:24;;;;;;;17.92;3.63;;;11.00;99.90;;;;;;5034040;28;20048;-68
2023/12/28 09:34:51;;;;;;;24.05;3.45;;;11.00;99.90;;;;;;5021100;28;20072;-69
2023/12/28 09:37:17;;;;;;;19.25;3.60;;;10.90;99.90;;;;;;5026658;28;20142;-70
2023/12/28 09:39:44;;;;;;;17.92;3.03;;;11.00;99.90;;;;;;5031695;28;20431;-68
2023/12/28 09:42:28;;;;;;;17.70;3.08;;;11.00;99.90;;;;;;5039601;28;20388;-67
2023/12/28 09:44:53;;;;;;;20.75;3.63;;;11.10;99.90;;;;;;5033046;28;20135;-69
2023/12/28 09:47:19;;;;;;;20.20;3.63;;;11.10;99.90;;;;;;5017060;28;20592;-69
2023/12/28 09:49:46;;;;;;;18.27;4.10;;;11.10;99.90;;;;;;5050205;28;20047;-67
2023/12/28 09:52:12;;;;;;;17.45;3.78;;;11.10;99.90;;;;;;5033065;28;20041;-68
2023/12/28 09:54:38;;;;;;;13.57;3.95;;;11.10;99.90;;;;;;5030821;28;20048;-67
2023/12/28 09:57:05;;;;;;;16.38;3.30;;;11.10;99.90;;;;;;5032543;28;20037;-67
2023/12/28 09:59:32;;;;;;;20.52;3.78;;;11.10;99.90;;;;;;5033408;28;20434;-68
2023/12/28 10:02:00;;;;;;;17.42;3.20;;;11.10;99.90;;;;;;5016361;28;20127;-67
2023/12/28 10:04:28;;;;;;;18.52;3.22;;;11.20;99.90;;;;;;5030971;28;20128;-69
2023/12/28 10:06:54;;;;;;;25.00;3.35;;;11.20;99.90;;;;;;5034662;28;20501;-69
2023/12/28 10:09:21;;;;;;;17.20;3.38;;;11.20;99.90;;;;;;5030659;28;20065;-67
2023/12/28 10:11:47;;;;;;;15.43;3.17;;;11.20;99.90;;;;;;5031043;28;20050;-69
2023/12/28 10:14:13;;;;;;;16.98;3.45;;;11.20;99.90;;;;;;5037387;28;20041;-67
2023/12/28 10:16:42;;;;;;;24.17;3.90;;;11.20;99.90;;;;;;5038420;28;20040;-68
2023/12/28 10:19:08;;;;;;;19.05;3.08;;;11.30;99.90;;;;;;5031082;28;20087;-67
2023/12/28 10:21:34;;;;;;;17.08;3.65;;;11.20;99.90;;;;;;5035420;28;20041;-68
2023/12/28 10:23:59;;;;;;;16.20;2.78;;;11.20;99.90;;;;;;5041160;28;20099;-71
2023/12/28 10:26:25;;;;;;;15.38;3.58;;;11.20;99.90;;;;;;5015850;28;20033;-67
2023/12/28 10:28:58;;;;;;;13.55;2.63;;;11.20;99.90;;;;;;5020697;28;20041;-67
2023/12/28 10:31:24;;;;;;;19.58;3.38;;;11.20;99.90;;;;;;5037226;28;20076;-69
2023/12/28 10:33:50;;;;;;;14.43;3.35;;;11.30;99.90;;;;;;5023463;28;20025;-69
2023/12/28 10:36:16;;;;;;;14.63;2.95;;;11.30;99.90;;;;;;5018566;28;20030;-67
2023/12/28 10:38:45;;;;;;;19.10;3.30;;;11.30;99.90;;;;;;5033542;28;20029;-69
2023/12/28 10:41:13;;;;;;;17.77;2.90;;;11.30;99.90;;;;;;5035190;28;20033;-70
2023/12/28 10:44:03;;;;;;;18.58;3.92;;;11.30;99.90;;;;;;5030722;28;20052;-67
2023/12/28 10:46:31;;;;;;;12.93;3.08;;;11.30;99.90;;;;;;5029268;28;20049;-68
2023/12/28 10:49:09;;;;;;;17.17;3.85;;;11.30;99.90;;;;;;5032276;28;20141;-69
2023/12/28 10:51:38;;;;;;;15.77;3.10;;;11.30;99.90;;;;;;5040816;28;20045;-67
2023/12/28 10:54:10;;;;;;;15.00;3.25;;;11.40;99.90;;;;;;5046760;28;20063;-70
2023/12/28 10:56:45;;;;;;;15.38;3.60;;;11.30;99.90;;;;;;5033322;28;20091;-68
2023/12/28 10:59:24;;;;;;;12.48;2.95;;;11.40;99.90;;;;;;5034548;28;20482;-68
2023/12/28 11:01:53;;;;;;;15.02;3.15;;;11.40;99.90;;;;;;5033620;28;20124;-67
2023/12/28 11:04:41;;;;;;;17.65;3.08;;;11.30;99.90;;;;;;5042975;28;20047;-70
2023/12/28 11:07:09;;;;;;;14.45;3.00;;;11.40;99.90;;;;;;5032466;28;20353;-68
2023/12/28 11:09:35;;;;;;;14.73;2.70;;;11.40;99.90;;;;;;5036712;28;20048;-67
2023/12/28 11:12:04;;;;;;;16.25;3.53;;;11.30;99.90;;;;;;5038912;28;20469;-67
2023/12/28 11:14:31;;;;;;;19.00;4.07;;;11.30;99.90;;;;;;5048533;28;20461;-67
2023/12/28 11:17:00;;;;;;;14.35;2.90;;;11.40;99.90;;;;;;5039917;28;20224;-68
2023/12/28 11:19:27;;;;;;;22.92;3.30;;;11.40;99.90;;;;;;5027407;28;20106;-66
2023/12/28 11:21:56;;;;;;;17.85;2.95;;;11.40;99.90;;;;;;5047223;28;20041;-68
2023/12/28 11:24:22;;;;;;;17.70;3.38;;;11.40;99.90;;;;;;5035314;28;20040;-71
2023/12/28 11:26:55;;;;;;;11.82;3.05;;;11.30;99.90;;;;;;5041758;28;20044;-69
2023/12/28 11:29:21;;;;;;;17.60;3.00;;;11.40;99.90;;;;;;5037771;28;20398;-69
2023/12/28 11:31:54;;;;;;;15.02;3.33;;;11.40;99.90;;;;;;5024407;28;20071;-69
2023/12/28 11:34:30;;;;;;;12.23;2.92;;;11.40;99.90;;;;;;5032268;28;20448;-71
2023/12/28 11:36:58;;;;;;;10.70;2.58;;;11.30;99.90;;;;;;5032453;28;20460;-67
2023/12/28 11:39:34;;;;;;;14.85;2.78;;;11.30;99.90;;;;;;5029831;28;20084;-69
2023/12/28 11:42:08;;;;;;;15.63;3.10;;;11.30;99.90;;;;;;5030645;28;20038;-71
2023/12/28 11:44:44;;;;;;;14.55;2.50;;;11.30;99.90;;;;;;5031535;28;20425;-71
2023/12/28 11:47:24;;;;;;;18.80;3.00;;;11.30;99.90;;;;;;5051977;28;20067;-68
2023/12/28 11:49:54;;;;;;;17.35;3.15;;;11.30;99.90;;;;;;5050665;28;20140;-69
2023/12/28 11:52:31;;;;;;;9.00;2.72;;;11.20;99.90;;;;;;5047259;28;20136;-68
2023/12/28 11:54:57;;;;;;;18.20;3.78;;;11.20;99.90;;;;;;5030101;28;20612;-69
2023/12/28 11:57:23;;;;;;;19.38;4.65;;;11.30;99.90;;;;;;5013223;28;20124;-72
2023/12/28 11:59:55;;;;;;;17.38;3.00;;;11.30;99.90;;;;;;5040349;28;20029;-67
2023/12/28 12:02:21;;;;;;;16.33;3.60;;;11.40;99.90;;;;;;5015750;28;20477;-67
2023/12/28 12:04:46;;;;;;;13.27;2.80;;;11.30;99.90;;;;;;5034968;28;20048;-68
2023/12/28 12:07:12;;;;;;;17.05;2.97;;;11.40;99.90;;;;;;5042502;28;20041;-67
2023/12/28 12:09:37;;;;;;;15.85;2.92;;;11.30;99.90;;;;;;5037711;28;20048;-66
2023/12/28 12:12:04;;;;;;;16.52;2.90;;;11.30;99.90;;;;;;5037482;28;20039;-67
2023/12/28 12:14:30;;;;;;;19.48;3.65;;;11.30;99.90;;;;;;5033565;28;20045;-66
2023/12/28 12:16:57;;;;;;;20.25;3.50;;;11.30;99.90;;;;;;5052267;28;20047;-66
2023/12/28 12:19:26;;;;;;;15.48;3.42;;;11.30;99.90;;;;;;5037282;28;20068;-66
2023/12/28 12:21:52;;;;;;;19.08;2.83;;;11.30;99.90;;;;;;5030112;28;20416;-66
2023/12/28 12:24:19;;;;;;;20.60;3.35;;;11.30;99.90;;;;;;5019794;28;20041;-69
2023/12/28 12:26:49;;;;;;;16.23;3.03;;;11.30;99.90;;;;;;5038170;28;20052;-66
2023/12/28 12:29:15;;;;;;;19.02;3.10;;;11.30;99.90;;;;;;5040478;28;20103;-68
2023/12/28 12:31:42;;;;;;;17.95;3.40;;;11.30;99.90;;;;;;5050714;28;20040;-66
2023/12/28 12:34:12;;;;;;;19.50;4.20;;;11.30;99.90;;;;;;5035001;28;20120;-68
2023/12/28 12:36:37;;;;;;;19.48;3.10;;;11.20;99.90;;;;;;5041186;28;20067;-69
2023/12/28 12:39:07;;;;;;;18.13;3.45;;;11.20;99.90;;;;;;5032309;28;20033;-68
2023/12/28 12:41:34;;;;;;;18.55;3.30;;;11.30;99.90;;;;;;5014304;28;20409;-68
2023/12/28 12:44:00;;;;;;;13.60;2.83;;;11.30;99.90;;;;;;5041861;28;20403;-68